createdAt,value
2022-12-31T00:01:30.138Z,100185.56
2022-12-31T00:03:56.945Z,100196.69
2022-12-31T00:06:34.340Z,100191.66
2022-12-31T00:09:03.986Z,100179.84
2022-12-31T00:11:31.538Z,100185.31
2022-12-31T00:13:58.444Z,100186.38
2022-12-31T00:16:31.283Z,100188.88
2022-12-31T00:18:59.475Z,100185.09
2022-12-31T00:21:28.142Z,100181.94
2022-12-31T00:23:57.543Z,100184.00
2022-12-31T00:26:28.164Z,100170.56
2022-12-31T00:28:56.776Z,100176.84
2022-12-31T00:31:29.479Z,100184.63
2022-12-31T00:33:57.015Z,100183.34
2022-12-31T00:36:26.014Z,100178.13
2022-12-31T00:38:54.769Z,100182.31
2022-12-31T00:41:22.613Z,100188.00
2022-12-31T00:43:49.293Z,100179.81
2022-12-31T00:46:16.548Z,100182.94
2022-12-31T00:48:43.413Z,100188.00
2022-12-31T00:51:12.431Z,100177.69
2022-12-31T00:53:39.184Z,100183.16
2022-12-31T00:56:13.084Z,100198.28
2022-12-31T00:58:44.951Z,100203.75
2022-12-31T01:01:23.480Z,100209.03
2022-12-31T01:03:52.840Z,100208.41
2022-12-31T01:06:21.550Z,100208.84
2022-12-31T01:08:49.762Z,100216.84
2022-12-31T01:11:19.007Z,100217.69
2022-12-31T01:13:47.587Z,100219.81
2022-12-31T01:16:15.001Z,100223.81
2022-12-31T01:18:41.635Z,100225.72
2022-12-31T01:21:12.451Z,100215.63
2022-12-31T01:23:39.277Z,100217.31
2022-12-31T01:26:08.815Z,100219.81
2022-12-31T01:28:35.580Z,100221.75
2022-12-31T01:31:07.130Z,100227.00
2022-12-31T01:33:37.159Z,100236.25
2022-12-31T01:36:05.497Z,100238.97
2022-12-31T01:38:32.841Z,100251.63
2022-12-31T01:41:02.478Z,100240.44
2022-12-31T01:43:47.730Z,100254.38
2022-12-31T01:46:21.232Z,100261.09
2022-12-31T01:48:53.454Z,100253.50
2022-12-31T01:51:20.414Z,100257.72
2022-12-31T01:53:48.471Z,100270.38
2022-12-31T01:56:18.154Z,100268.91
2022-12-31T01:58:47.537Z,100251.88
2022-12-31T02:01:21.680Z,100251.44
2022-12-31T02:03:50.887Z,100262.63
2022-12-31T02:06:23.631Z,100263.66
2022-12-31T02:08:50.755Z,100258.47
2022-12-31T02:11:27.934Z,100259.06
2022-12-31T02:13:58.791Z,100270.44
2022-12-31T02:16:36.148Z,100255.91
2022-12-31T02:19:21.755Z,100256.75
2022-12-31T02:22:14.169Z,100247.28
2022-12-31T02:24:52.962Z,100235.09
2022-12-31T02:27:35.067Z,100252.72
2022-12-31T02:30:15.459Z,100249.59
2022-12-31T02:33:05.577Z,100251.09
2022-12-31T02:35:49.855Z,100255.22
2022-12-31T02:38:32.329Z,100268.28
2022-12-31T02:40:59.647Z,100261.19
2022-12-31T02:43:29.131Z,100279.09
2022-12-31T02:46:18.326Z,100274.06
2022-12-31T02:49:07.876Z,100276.81
2022-12-31T02:51:44.482Z,100263.53
2022-12-31T02:54:22.891Z,100268.38
2022-12-31T02:57:00.633Z,100277.22
2022-12-31T02:59:56.669Z,100297.47
2022-12-31T03:02:27.071Z,100299.56
2022-12-31T03:04:55.992Z,100298.31
2022-12-31T03:07:28.390Z,100302.31
2022-12-31T03:09:57.981Z,100296.84
2022-12-31T03:12:46.792Z,100293.47
2022-12-31T03:15:23.404Z,100300.41
2022-12-31T03:17:57.961Z,100292.41
2022-12-31T03:21:02.497Z,100296.84
2022-12-31T03:23:33.182Z,100296.19
2022-12-31T03:26:01.423Z,100304.22
2022-12-31T03:28:30.641Z,100302.09
2022-12-31T03:31:02.501Z,100296.19
2022-12-31T03:33:54.114Z,100303.59
2022-12-31T03:36:20.496Z,100291.75
2022-12-31T03:38:52.479Z,100294.50
2022-12-31T03:41:19.100Z,100292.63
2022-12-31T03:43:45.496Z,100293.25
2022-12-31T03:46:11.890Z,100286.72
2022-12-31T03:48:40.687Z,100280.81
2022-12-31T03:51:10.635Z,100279.13
2022-12-31T03:53:36.996Z,100281.03
2022-12-31T03:56:03.518Z,100275.97
2022-12-31T03:58:30.170Z,100289.47
2022-12-31T04:00:56.903Z,100288.59
2022-12-31T04:03:30.808Z,100284.41
2022-12-31T04:05:57.332Z,100282.91
2022-12-31T04:08:27.004Z,100285.25
2022-12-31T04:10:53.512Z,100284.63
2022-12-31T04:13:22.253Z,100286.53
2022-12-31T04:15:52.043Z,100287.75
2022-12-31T04:18:21.421Z,100283.13
2022-12-31T04:20:47.928Z,100290.09
2022-12-31T04:23:14.293Z,100287.56
2022-12-31T04:25:43.207Z,100284.59
2022-12-31T04:28:12.121Z,100283.53
2022-12-31T04:30:38.643Z,100283.78
2022-12-31T04:33:07.610Z,100304.22
2022-12-31T04:35:36.551Z,100303.97
2022-12-31T04:38:03.124Z,100311.38
2022-12-31T04:40:29.532Z,100300.63
2022-12-31T04:42:56.058Z,100305.66
2022-12-31T04:45:22.564Z,100299.97
2022-12-31T04:47:49.025Z,100308.84
2022-12-31T04:50:17.770Z,100316.00
2022-12-31T04:52:47.276Z,100319.38
2022-12-31T04:55:16.659Z,100324.22
2022-12-31T04:57:43.105Z,100314.09
2022-12-31T05:00:10.133Z,100316.84
2022-12-31T05:02:36.623Z,100315.16
2022-12-31T05:05:03.241Z,100318.50
2022-12-31T05:07:32.001Z,100317.47
2022-12-31T05:10:00.871Z,100329.03
2022-12-31T05:12:27.454Z,100333.69
2022-12-31T05:14:56.025Z,100325.47
2022-12-31T05:17:22.465Z,100340.44
2022-12-31T05:19:51.262Z,100344.03
2022-12-31T05:22:29.897Z,100334.53
2022-12-31T05:24:58.246Z,100344.03
2022-12-31T05:27:25.975Z,100339.59
2022-12-31T05:29:52.430Z,100343.41
2022-12-31T05:32:18.801Z,100334.75
2022-12-31T05:34:45.205Z,100345.47
2022-12-31T05:37:14.163Z,100345.47
2022-12-31T05:39:40.554Z,100353.13
2022-12-31T05:42:06.957Z,100347.59
2022-12-31T05:44:35.606Z,100354.38
2022-12-31T05:47:02.090Z,100349.50
2022-12-31T05:49:28.485Z,100369.53
2022-12-31T05:51:54.850Z,100375.88
2022-12-31T05:54:21.518Z,100380.50
2022-12-31T05:56:47.921Z,100370.81
2022-12-31T05:59:14.352Z,100375.44
2022-12-31T06:01:41.125Z,100375.84
2022-12-31T06:04:07.623Z,100383.66
2022-12-31T06:06:34.044Z,100391.25
2022-12-31T06:09:00.727Z,100386.84
2022-12-31T06:11:27.175Z,100398.25
2022-12-31T06:13:53.641Z,100398.47
2022-12-31T06:16:20.149Z,100400.78
2022-12-31T06:18:50.770Z,100404.34
2022-12-31T06:21:18.256Z,100394.84
2022-12-31T06:23:44.743Z,100398.44
2022-12-31T06:26:11.172Z,100394.88
2022-12-31T06:28:37.518Z,100403.28
2022-12-31T06:31:06.206Z,100394.19
2022-12-31T06:33:33.672Z,100398.63
2022-12-31T06:36:02.758Z,100401.78
2022-12-31T06:38:31.039Z,100396.97
2022-12-31T06:40:57.405Z,100396.31
2022-12-31T06:43:23.768Z,100398.63
2022-12-31T06:45:52.492Z,100403.91
2022-12-31T06:48:18.831Z,100394.88
2022-12-31T06:50:45.169Z,100388.53
2022-12-31T06:53:13.852Z,100403.09
2022-12-31T06:55:43.169Z,100399.72
2022-12-31T06:58:15.894Z,100399.53
2022-12-31T07:01:14.853Z,100403.53
2022-12-31T07:04:04.101Z,100406.72
2022-12-31T07:06:43.988Z,100416.81
2022-12-31T07:09:21.507Z,100409.25
2022-12-31T07:12:03.773Z,100411.13
2022-12-31T07:14:30.103Z,100416.59
2022-12-31T07:17:02.715Z,100414.31
2022-12-31T07:19:36.421Z,100407.56
2022-12-31T07:22:05.684Z,100407.53
2022-12-31T07:24:32.362Z,100414.94
2022-12-31T07:27:05.368Z,100424.41
2022-12-31T07:29:42.128Z,100418.09
2022-12-31T07:32:48.116Z,100422.94
2022-12-31T07:35:35.211Z,100418.53
2022-12-31T07:38:26.990Z,100421.91
2022-12-31T07:41:16.786Z,100426.13
2022-12-31T07:44:14.511Z,100436.03
2022-12-31T07:46:53.156Z,100436.28
2022-12-31T07:49:23.645Z,100439.63
2022-12-31T07:51:53.321Z,100449.94
2022-12-31T07:54:20.158Z,100452.25
2022-12-31T07:56:47.012Z,100457.31
2022-12-31T07:59:37.396Z,100448.28
2022-12-31T08:02:14.478Z,100451.41
2022-12-31T08:04:59.613Z,100450.59
2022-12-31T08:07:28.799Z,100459.25
2022-12-31T08:10:02.857Z,100468.13
2022-12-31T08:12:37.418Z,100460.53
2022-12-31T08:15:12.893Z,100476.34
2022-12-31T08:17:44.339Z,100482.06
2022-12-31T08:20:20.412Z,100472.78
2022-12-31T08:23:20.703Z,100486.06
2022-12-31T08:26:08.111Z,100478.88
2022-12-31T08:28:56.296Z,100481.63
2022-12-31T08:31:27.819Z,100490.91
2022-12-31T08:34:08.292Z,100486.03
2022-12-31T08:36:43.403Z,100476.16
2022-12-31T08:39:28.677Z,100488.38
2022-12-31T08:41:58.210Z,100493.88
2022-12-31T08:44:36.362Z,100490.06
2022-12-31T08:47:02.738Z,100486.03
2022-12-31T08:49:34.039Z,100481.81
2022-12-31T08:52:01.686Z,100485.19
2022-12-31T08:54:29.181Z,100487.69
2022-12-31T08:57:21.041Z,100497.00
2022-12-31T09:00:02.211Z,100497.81
2022-12-31T09:03:02.868Z,100494.84
2022-12-31T09:06:14.971Z,100507.53
2022-12-31T09:08:52.342Z,100507.53
2022-12-31T09:11:33.679Z,100507.97
2022-12-31T09:14:40.868Z,100513.22
2022-12-31T09:17:28.579Z,100511.75
2022-12-31T09:19:55.417Z,100504.94
2022-12-31T09:22:22.152Z,100513.19
2022-12-31T09:24:51.631Z,100516.38
2022-12-31T09:27:28.574Z,100515.53
2022-12-31T09:30:04.715Z,100528.63
2022-12-31T09:32:45.525Z,100531.16
2022-12-31T09:35:36.648Z,100533.69
2022-12-31T09:38:19.691Z,100539.16
2022-12-31T09:41:00.870Z,100538.72
2022-12-31T09:43:49.474Z,100532.16
2022-12-31T09:46:18.852Z,100536.53
2022-12-31T09:49:16.564Z,100523.84
2022-12-31T09:52:21.657Z,100534.41
2022-12-31T09:55:06.797Z,100525.09
2022-12-31T09:58:08.523Z,100513.91
2022-12-31T10:00:44.625Z,100513.69
2022-12-31T10:03:35.568Z,100516.59
2022-12-31T10:06:32.967Z,100504.97
2022-12-31T10:09:08.068Z,100509.75
2022-12-31T10:11:43.681Z,100514.81
2022-12-31T10:14:47.605Z,100506.75
2022-12-31T10:17:39.845Z,100498.09
2022-12-31T10:20:24.821Z,100504.16
2022-12-31T10:23:28.860Z,100502.41
2022-12-31T10:26:03.989Z,100500.31
2022-12-31T10:28:53.963Z,100510.78
2022-12-31T10:31:57.091Z,100504.00
2022-12-31T10:34:34.593Z,100507.53
2022-12-31T10:37:11.868Z,100501.53
2022-12-31T10:40:04.702Z,100497.81
2022-12-31T10:43:03.527Z,100497.16
2022-12-31T10:46:05.677Z,100489.50
2022-12-31T10:48:58.491Z,100510.59
2022-12-31T10:51:27.799Z,100483.47
2022-12-31T10:54:21.790Z,100494.81
2022-12-31T10:56:54.310Z,100487.97
2022-12-31T10:59:36.035Z,100504.91
2022-12-31T11:02:29.221Z,100485.25
2022-12-31T11:05:30.107Z,100488.75
2022-12-31T11:08:12.645Z,100495.59
2022-12-31T11:11:01.353Z,100485.78
2022-12-31T11:13:58.056Z,100502.81
2022-12-31T11:16:44.759Z,100501.03
2022-12-31T11:19:21.981Z,100516.66
2022-12-31T11:22:00.511Z,100519.63
2022-12-31T11:25:04.038Z,100514.38
2022-12-31T11:27:52.468Z,100512.38
2022-12-31T11:30:25.017Z,100510.16
2022-12-31T11:32:57.332Z,100494.44
2022-12-31T11:36:10.090Z,100495.47
2022-12-31T11:38:43.546Z,100505.72
2022-12-31T11:41:42.642Z,100489.53
2022-12-31T11:44:23.586Z,100466.75
2022-12-31T11:47:08.871Z,100488.09
2022-12-31T11:50:03.563Z,100477.69
2022-12-31T11:52:46.267Z,100469.19
2022-12-31T11:55:37.670Z,100481.69
2022-12-31T11:58:17.806Z,100475.41
2022-12-31T12:01:15.044Z,100468.34
2022-12-31T12:03:43.724Z,100471.69
2022-12-31T12:06:16.484Z,100468.09
2022-12-31T12:08:44.273Z,100458.72
2022-12-31T12:11:23.593Z,100445.63
2022-12-31T12:13:52.696Z,100457.38
2022-12-31T12:16:23.652Z,100464.50
2022-12-31T12:19:02.102Z,100457.16
2022-12-31T12:21:28.788Z,100448.16
2022-12-31T12:24:19.346Z,100462.78
2022-12-31T12:26:48.761Z,100462.91
2022-12-31T12:29:15.202Z,100442.84
2022-12-31T12:31:41.802Z,100463.16
2022-12-31T12:34:30.162Z,100471.19
2022-12-31T12:36:56.987Z,100454.72
2022-12-31T12:39:25.866Z,100460.03
2022-12-31T12:42:01.676Z,100458.34
2022-12-31T12:44:28.034Z,100459.34
2022-12-31T12:46:55.828Z,100476.84
2022-12-31T12:49:26.586Z,100456.78
2022-12-31T12:52:14.937Z,100438.50
2022-12-31T12:55:00.104Z,100473.50
2022-12-31T12:57:40.822Z,100460.81
2022-12-31T13:00:20.984Z,100452.25
2022-12-31T13:03:05.477Z,100453.19
2022-12-31T13:05:58.318Z,100454.38
2022-12-31T13:09:00.146Z,100450.28
2022-12-31T13:11:39.209Z,100445.88
2022-12-31T13:14:31.026Z,100438.50
2022-12-31T13:17:16.608Z,100467.63
2022-12-31T13:19:59.077Z,100452.72
2022-12-31T13:22:51.965Z,100448.63
2022-12-31T13:25:39.536Z,100435.06
2022-12-31T13:28:12.456Z,100430.13
2022-12-31T13:30:49.293Z,100431.66
2022-12-31T13:33:31.116Z,100424.66
2022-12-31T13:36:01.917Z,100440.31
2022-12-31T13:38:51.124Z,100432.56
2022-12-31T13:41:24.804Z,100422.75
2022-12-31T13:44:04.652Z,100424.94
2022-12-31T13:47:12.716Z,100428.16
2022-12-31T13:49:44.532Z,100413.84
2022-12-31T13:52:34.542Z,100425.25
2022-12-31T13:55:39.486Z,100412.84
2022-12-31T13:58:35.341Z,100421.47
2022-12-31T14:01:41.054Z,100393.84
2022-12-31T14:04:12.917Z,100399.69
2022-12-31T14:07:05.445Z,100391.56
2022-12-31T14:09:35.017Z,100388.13
2022-12-31T14:12:09.491Z,100386.25
2022-12-31T14:15:00.807Z,100398.91
2022-12-31T14:17:42.335Z,100389.88
2022-12-31T14:20:25.196Z,100393.88
2022-12-31T14:23:13.565Z,100400.00
2022-12-31T14:25:47.770Z,100407.03
2022-12-31T14:28:22.164Z,100404.13
2022-12-31T14:30:55.336Z,100400.13
2022-12-31T14:33:30.163Z,100401.44
2022-12-31T14:36:10.751Z,100412.28
2022-12-31T14:39:09.544Z,100401.53
2022-12-31T14:41:41.710Z,100416.50
2022-12-31T14:44:42.036Z,100421.22
2022-12-31T14:47:24.000Z,100422.00
2022-12-31T14:50:11.600Z,100422.63
2022-12-31T14:53:03.621Z,100417.13
2022-12-31T14:55:35.709Z,100424.19
2022-12-31T15:01:08.979Z,100419.06
2022-12-31T15:03:45.801Z,100412.88
2022-12-31T15:06:24.672Z,100418.56
2022-12-31T15:09:18.316Z,100408.72
2022-12-31T15:12:15.661Z,100410.00
2022-12-31T15:15:09.539Z,100421.75
2022-12-31T15:18:01.010Z,100419.44
2022-12-31T15:20:55.539Z,100417.78
2022-12-31T15:23:37.870Z,100419.06
2022-12-31T15:26:06.169Z,100411.28
2022-12-31T15:28:39.791Z,100419.53
2022-12-31T15:31:26.927Z,100417.50
2022-12-31T15:34:09.545Z,100415.00
2022-12-31T15:36:38.965Z,100427.28
2022-12-31T15:39:09.826Z,100420.56
2022-12-31T15:41:37.458Z,100428.34
2022-12-31T15:44:25.883Z,100432.19
2022-12-31T15:47:00.397Z,100435.78
2022-12-31T15:49:34.851Z,100439.41
2022-12-31T15:52:04.628Z,100439.19
2022-12-31T15:54:44.793Z,100429.72
2022-12-31T15:57:25.828Z,100438.38
2022-12-31T15:59:59.599Z,100448.28
2022-12-31T16:02:27.962Z,100451.63
2022-12-31T16:04:57.933Z,100454.56
2022-12-31T16:07:26.351Z,100458.59
2022-12-31T16:09:59.532Z,100467.03
2022-12-31T16:12:33.220Z,100460.28
2022-12-31T16:15:03.328Z,100469.16
2022-12-31T16:17:32.680Z,100457.56
2022-12-31T16:20:01.065Z,100452.25
2022-12-31T16:22:37.303Z,100468.72
2022-12-31T16:25:30.593Z,100471.88
2022-12-31T16:28:04.642Z,100471.88
2022-12-31T16:30:36.314Z,100484.97
2022-12-31T16:33:12.687Z,100478.00
2022-12-31T16:35:39.089Z,100479.69
2022-12-31T16:38:14.976Z,100488.13
2022-12-31T16:40:43.592Z,100485.59
2022-12-31T16:43:27.682Z,100487.28
2022-12-31T16:46:06.894Z,100493.66
2022-12-31T16:48:33.402Z,100494.44
2022-12-31T16:50:59.875Z,100497.84
2022-12-31T16:53:27.959Z,100496.16
2022-12-31T16:55:58.445Z,100492.56
2022-12-31T16:58:34.473Z,100485.38
2022-12-31T17:01:13.915Z,100488.13
2022-12-31T17:03:45.353Z,100488.34
2022-12-31T17:06:21.505Z,100480.09
2022-12-31T17:09:05.271Z,100488.50
2022-12-31T17:11:35.638Z,100490.63
2022-12-31T17:14:08.121Z,100480.06
2022-12-31T17:16:37.164Z,100472.88
2022-12-31T17:19:06.761Z,100473.69
2022-12-31T17:21:33.467Z,100479.84
2022-12-31T17:24:07.032Z,100476.69
2022-12-31T17:26:40.472Z,100480.88
2022-12-31T17:29:26.218Z,100483.63
2022-12-31T17:32:02.543Z,100472.00
2022-12-31T17:34:34.119Z,100474.31
2022-12-31T17:37:17.616Z,100482.34
2022-12-31T17:39:47.818Z,100486.13
2022-12-31T17:42:24.213Z,100488.66
2022-12-31T17:45:00.872Z,100491.22
2022-12-31T17:47:39.042Z,100488.06
2022-12-31T17:50:23.742Z,100484.03
2022-12-31T17:52:55.261Z,100490.38
2022-12-31T17:55:21.747Z,100494.44
2022-12-31T17:57:52.241Z,100496.94
2022-12-31T18:00:21.069Z,100500.78
2022-12-31T18:02:47.726Z,100505.84
2022-12-31T18:05:19.191Z,100499.06
2022-12-31T18:07:45.934Z,100506.69
2022-12-31T18:10:16.873Z,100515.97
2022-12-31T18:12:44.704Z,100518.72
2022-12-31T18:15:23.437Z,100518.94
2022-12-31T18:17:50.004Z,100518.78
2022-12-31T18:20:17.118Z,100532.28
2022-12-31T18:22:44.692Z,100519.81
2022-12-31T18:25:20.434Z,100523.44
2022-12-31T18:27:48.035Z,100522.56
2022-12-31T18:30:16.541Z,100520.69
2022-12-31T18:32:45.197Z,100534.59
2022-12-31T18:35:33.302Z,100538.19
2022-12-31T18:38:01.472Z,100532.69
2022-12-31T18:40:28.445Z,100531.00
2022-12-31T18:42:59.668Z,100530.38
2022-12-31T18:45:29.258Z,100540.28
2022-12-31T18:47:55.843Z,100536.69
2022-12-31T18:50:24.432Z,100538.16
2022-12-31T18:52:53.440Z,100546.38
2022-12-31T18:55:26.168Z,100558.22
2022-12-31T18:57:52.871Z,100556.47
2022-12-31T19:00:19.501Z,100552.69
2022-12-31T19:02:48.182Z,100544.03
2022-12-31T19:05:26.319Z,100555.22
2022-12-31T19:07:52.974Z,100548.88
2022-12-31T19:10:20.159Z,100545.03
2022-12-31T19:12:50.527Z,100554.16
2022-12-31T19:15:34.991Z,100556.84
2022-12-31T19:18:09.695Z,100549.66
2022-12-31T19:20:36.144Z,100552.19
2022-12-31T19:23:02.518Z,100549.84
2022-12-31T19:25:36.346Z,100548.34
2022-12-31T19:28:09.418Z,100543.22
2022-12-31T19:30:36.441Z,100555.31
2022-12-31T19:33:09.742Z,100543.91
2022-12-31T19:35:38.431Z,100540.66
2022-12-31T19:38:12.709Z,100546.97
2022-12-31T19:40:40.244Z,100548.59
2022-12-31T19:43:19.685Z,100545.25
2022-12-31T19:45:50.438Z,100550.69
2022-12-31T19:48:32.351Z,100553.00
2022-12-31T19:50:59.796Z,100542.03
2022-12-31T19:53:27.377Z,100538.44
2022-12-31T19:55:54.351Z,100546.00
2022-12-31T19:58:27.925Z,100540.94
2022-12-31T20:01:02.038Z,100550.19
2022-12-31T20:03:29.936Z,100539.25
2022-12-31T20:06:07.554Z,100541.97
2022-12-31T20:08:35.359Z,100544.25
2022-12-31T20:11:13.247Z,100542.31
2022-12-31T20:13:40.947Z,100544.25
2022-12-31T20:16:09.323Z,100543.63
2022-12-31T20:18:46.761Z,100542.16
2022-12-31T20:21:22.204Z,100546.25
2022-12-31T20:23:52.566Z,100546.09
2022-12-31T20:26:21.405Z,100543.81
2022-12-31T20:28:48.078Z,100555.28
2022-12-31T20:31:20.918Z,100549.53
2022-12-31T20:33:49.755Z,100554.84
2022-12-31T20:36:20.692Z,100557.16
2022-12-31T20:38:47.513Z,100560.50
2022-12-31T20:41:21.884Z,100562.00
2022-12-31T20:43:48.667Z,100554.13
2022-12-31T20:46:19.307Z,100559.44
2022-12-31T20:48:46.795Z,100562.00
2022-12-31T20:51:17.143Z,100562.13
2022-12-31T20:53:48.585Z,100556.66
2022-12-31T20:56:15.294Z,100560.56
2022-12-31T20:58:41.840Z,100558.22
2022-12-31T21:01:13.644Z,100564.94
2022-12-31T21:06:29.435Z,100562.84
2022-12-31T21:08:57.745Z,100556.94
2022-12-31T21:11:43.179Z,100565.19
2022-12-31T21:14:09.851Z,100575.50
2022-12-31T21:16:36.489Z,100564.94
2022-12-31T21:19:03.034Z,100571.25
2022-12-31T21:21:29.718Z,100556.75
2022-12-31T21:23:56.243Z,100558.69
2022-12-31T21:26:22.755Z,100570.25
2022-12-31T21:28:51.550Z,100571.47
2022-12-31T21:31:20.423Z,100577.56
2022-12-31T21:33:47.761Z,100567.38
2022-12-31T21:36:15.697Z,100572.50
2022-12-31T21:38:44.760Z,100577.50
2022-12-31T21:41:35.049Z,100579.53
2022-12-31T21:44:03.322Z,100572.13
2022-12-31T21:46:30.510Z,100584.16
2022-12-31T21:49:08.796Z,100576.09
2022-12-31T21:51:55.200Z,100575.91
2022-12-31T21:54:41.639Z,100580.34
2022-12-31T21:57:08.507Z,100576.75
2022-12-31T22:00:23.955Z,100580.50
2022-12-31T22:03:01.519Z,100576.16
2022-12-31T22:05:28.127Z,100570.81
2022-12-31T22:07:56.857Z,100579.41
2022-12-31T22:10:23.314Z,100583.78
2022-12-31T22:12:49.839Z,100586.16
2022-12-31T22:15:16.435Z,100586.38
2022-12-31T22:17:43.012Z,100592.59
2022-12-31T22:20:27.213Z,100595.81
2022-12-31T22:22:57.082Z,100600.13
2022-12-31T22:25:28.594Z,100606.44
2022-12-31T22:28:36.277Z,100608.41
2022-12-31T22:30:47.439Z,100607.63
2022-12-31T22:33:13.891Z,100618.19
2022-12-31T22:35:40.525Z,100615.91
2022-12-31T22:38:15.805Z,100618.88
2022-12-31T22:40:42.385Z,100615.28
2022-12-31T22:43:08.752Z,100634.38
2022-12-31T22:45:36.483Z,100635.78
2022-12-31T22:48:02.866Z,100626.88
2022-12-31T22:50:31.661Z,100632.34
2022-12-31T22:52:58.193Z,100631.56
2022-12-31T22:55:24.557Z,100638.75
2022-12-31T22:57:50.996Z,100635.34
2022-12-31T23:00:17.449Z,100630.69
2022-12-31T23:02:43.989Z,100630.81
2022-12-31T23:05:16.113Z,100640.88
2022-12-31T23:07:42.937Z,100645.03
2022-12-31T23:10:29.383Z,100640.28
2022-12-31T23:12:55.804Z,100638.38
2022-12-31T23:15:40.835Z,100640.69
2022-12-31T23:18:26.033Z,100648.16
2022-12-31T23:21:10.996Z,100645.63
2022-12-31T23:23:37.436Z,100643.88
2022-12-31T23:26:12.295Z,100636.91
2022-12-31T23:28:41.926Z,100639.97
2022-12-31T23:31:10.586Z,100649.28
2022-12-31T23:33:36.986Z,100637.94
2022-12-31T23:36:07.206Z,100640.72
2022-12-31T23:38:33.807Z,100639.03
2022-12-31T23:41:16.914Z,100632.56
2022-12-31T23:43:44.063Z,100631.09
2022-12-31T23:46:11.878Z,100640.22
2022-12-31T23:48:38.271Z,100637.50
2022-12-31T23:51:05.394Z,100628.38
2022-12-31T23:53:32.025Z,100644.09
2022-12-31T23:56:14.910Z,100654.00
2022-12-31T23:58:44.694Z,100633.59
